sensor_id;sensor_type;location;lat;lon;timestamp;pressure;altitude;pressure_sealevel;temperature;humidity
49841;BME280;35738;49.890;5.930;2022-08-19T00:01:29;95611.00;;;16.36;79.13
49841;BME280;35738;49.890;5.930;2022-08-19T00:04:01;95615.75;;;16.35;78.92
49841;BME280;35738;49.890;5.930;2022-08-19T00:06:30;95617.25;;;16.33;78.86
49841;BME280;35738;49.890;5.930;2022-08-19T00:08:58;95621.16;;;16.28;79.18
49841;BME280;35738;49.890;5.930;2022-08-19T00:11:27;95622.75;;;16.29;79.62
49841;BME280;35738;49.890;5.930;2022-08-19T00:13:55;95604.09;;;16.26;79.27
49841;BME280;35738;49.890;5.930;2022-08-19T00:16:24;95613.94;;;16.24;80.01
49841;BME280;35738;49.890;5.930;2022-08-19T00:18:53;95613.16;;;16.23;79.99
49841;BME280;35738;49.890;5.930;2022-08-19T00:21:22;95616.66;;;16.20;80.03
49841;BME280;35738;49.890;5.930;2022-08-19T00:23:50;95621.41;;;16.19;80.16
49841;BME280;35738;49.890;5.930;2022-08-19T00:26:16;95611.13;;;16.20;79.84
49841;BME280;35738;49.890;5.930;2022-08-19T00:28:43;95618.69;;;16.23;80.01
49841;BME280;35738;49.890;5.930;2022-08-19T00:31:10;95620.66;;;16.23;79.56
49841;BME280;35738;49.890;5.930;2022-08-19T00:33:37;95620.25;;;16.20;79.88
49841;BME280;35738;49.890;5.930;2022-08-19T00:36:06;95617.91;;;16.23;79.96
49841;BME280;35738;49.890;5.930;2022-08-19T00:38:34;95609.53;;;16.19;79.90
49841;BME280;35738;49.890;5.930;2022-08-19T00:41:07;95603.59;;;16.20;80.14
49841;BME280;35738;49.890;5.930;2022-08-19T00:43:33;95602.09;;;16.27;79.99
49841;BME280;35738;49.890;5.930;2022-08-19T00:46:01;95604.28;;;16.37;79.87
49841;BME280;35738;49.890;5.930;2022-08-19T00:48:32;95596.38;;;16.39;79.93
49841;BME280;35738;49.890;5.930;2022-08-19T00:51:00;95602.31;;;16.37;79.61
49841;BME280;35738;49.890;5.930;2022-08-19T00:53:31;95607.78;;;16.34;79.52
49841;BME280;35738;49.890;5.930;2022-08-19T00:55:59;95610.13;;;16.32;79.60
49841;BME280;35738;49.890;5.930;2022-08-19T00:58:31;95609.69;;;16.30;79.90
49841;BME280;35738;49.890;5.930;2022-08-19T01:01:00;95607.34;;;16.32;79.90
49841;BME280;35738;49.890;5.930;2022-08-19T01:03:27;95608.50;;;16.31;80.07
49841;BME280;35738;49.890;5.930;2022-08-19T01:10:01;95589.78;;;16.24;80.59
49841;BME280;35738;49.890;5.930;2022-08-19T01:12:28;95591.63;;;16.16;80.30
49841;BME280;35738;49.890;5.930;2022-08-19T01:14:55;95592.38;;;16.13;81.05
49841;BME280;35738;49.890;5.930;2022-08-19T01:17:24;95584.31;;;16.05;80.96
49841;BME280;35738;49.890;5.930;2022-08-19T01:19:51;95585.69;;;15.92;81.47
49841;BME280;35738;49.890;5.930;2022-08-19T01:24:58;95584.03;;;15.64;82.43
49841;BME280;35738;49.890;5.930;2022-08-19T01:27:25;95587.44;;;15.57;83.06
49841;BME280;35738;49.890;5.930;2022-08-19T01:29:56;95587.72;;;15.52;83.12
49841;BME280;35738;49.890;5.930;2022-08-19T01:32:22;95591.28;;;15.53;83.48
49841;BME280;35738;49.890;5.930;2022-08-19T01:34:59;95599.69;;;15.56;84.13
49841;BME280;35738;49.890;5.930;2022-08-19T01:37:28;95587.25;;;15.66;83.78
49841;BME280;35738;49.890;5.930;2022-08-19T01:39:55;95580.09;;;15.65;83.18
49841;BME280;35738;49.890;5.930;2022-08-19T01:42:22;95586.81;;;15.64;83.14
49841;BME280;35738;49.890;5.930;2022-08-19T01:44:56;95573.38;;;15.66;82.90
49841;BME280;35738;49.890;5.930;2022-08-19T01:47:23;95573.75;;;15.65;83.05
49841;BME280;35738;49.890;5.930;2022-08-19T01:49:49;95569.38;;;15.64;83.28
49841;BME280;35738;49.890;5.930;2022-08-19T01:52:16;95571.72;;;15.62;83.71
49841;BME280;35738;49.890;5.930;2022-08-19T01:54:43;95572.50;;;15.62;83.21
49841;BME280;35738;49.890;5.930;2022-08-19T01:57:12;95571.25;;;15.60;83.15
49841;BME280;35738;49.890;5.930;2022-08-19T01:59:41;95568.75;;;15.54;84.35
49841;BME280;35738;49.890;5.930;2022-08-19T02:02:08;95571.53;;;15.54;84.29
49841;BME280;35738;49.890;5.930;2022-08-19T02:04:36;95569.66;;;15.58;83.89
49841;BME280;35738;49.890;5.930;2022-08-19T02:07:04;95574.31;;;15.54;84.64
49841;BME280;35738;49.890;5.930;2022-08-19T02:09:32;95581.44;;;15.55;84.02
49841;BME280;35738;49.890;5.930;2022-08-19T02:11:59;95582.91;;;15.49;84.05
49841;BME280;35738;49.890;5.930;2022-08-19T02:14:26;95573.88;;;15.52;83.95
49841;BME280;35738;49.890;5.930;2022-08-19T02:16:52;95575.72;;;15.45;83.62
49841;BME280;35738;49.890;5.930;2022-08-19T02:19:19;95579.22;;;15.42;84.13
49841;BME280;35738;49.890;5.930;2022-08-19T02:21:46;95584.69;;;15.38;84.69
49841;BME280;35738;49.890;5.930;2022-08-19T02:24:12;95584.31;;;15.40;84.79
49841;BME280;35738;49.890;5.930;2022-08-19T02:26:39;95585.44;;;15.35;84.23
49841;BME280;35738;49.890;5.930;2022-08-19T02:29:06;95588.88;;;15.29;85.20
49841;BME280;35738;49.890;5.930;2022-08-19T02:31:33;95590.84;;;15.28;84.46
49841;BME280;35738;49.890;5.930;2022-08-19T02:33:59;95584.44;;;15.24;84.77
49841;BME280;35738;49.890;5.930;2022-08-19T02:36:27;95592.72;;;15.24;84.77
49841;BME280;35738;49.890;5.930;2022-08-19T02:38:55;95596.31;;;15.24;84.99
49841;BME280;35738;49.890;5.930;2022-08-19T02:41:26;95594.84;;;15.31;85.00
49841;BME280;35738;49.890;5.930;2022-08-19T02:43:57;95601.25;;;15.35;85.95
49841;BME280;35738;49.890;5.930;2022-08-19T02:46:46;95598.19;;;15.40;84.67
49841;BME280;35738;49.890;5.930;2022-08-19T02:49:14;95603.41;;;15.45;85.40
49841;BME280;35738;49.890;5.930;2022-08-19T02:51:44;95603.56;;;15.52;84.98
49841;BME280;35738;49.890;5.930;2022-08-19T02:54:12;95597.22;;;15.51;84.88
49841;BME280;35738;49.890;5.930;2022-08-19T02:56:40;95597.50;;;15.46;84.33
49841;BME280;35738;49.890;5.930;2022-08-19T02:59:07;95597.50;;;15.46;85.23
49841;BME280;35738;49.890;5.930;2022-08-19T03:01:38;95593.56;;;15.47;84.34
49841;BME280;35738;49.890;5.930;2022-08-19T03:04:08;95593.88;;;15.42;84.96
49841;BME280;35738;49.890;5.930;2022-08-19T03:06:37;95598.13;;;15.36;85.57
49841;BME280;35738;49.890;5.930;2022-08-19T03:09:04;95603.59;;;15.33;85.51
49841;BME280;35738;49.890;5.930;2022-08-19T03:11:32;95606.44;;;15.36;85.00
49841;BME280;35738;49.890;5.930;2022-08-19T03:13:59;95607.72;;;15.42;84.94
49841;BME280;35738;49.890;5.930;2022-08-19T03:16:28;95598.97;;;15.40;85.04
49841;BME280;35738;49.890;5.930;2022-08-19T03:19:00;95600.16;;;15.39;84.83
49841;BME280;35738;49.890;5.930;2022-08-19T03:21:30;95594.16;;;15.37;85.55
49841;BME280;35738;49.890;5.930;2022-08-19T03:23:59;95596.50;;;15.35;85.23
49841;BME280;35738;49.890;5.930;2022-08-19T03:26:27;95596.56;;;15.39;85.38
49841;BME280;35738;49.890;5.930;2022-08-19T03:28:53;95598.53;;;15.38;85.70
49841;BME280;35738;49.890;5.930;2022-08-19T03:31:25;95601.31;;;15.38;85.57
49841;BME280;35738;49.890;5.930;2022-08-19T03:34:18;95591.84;;;15.39;86.10
49841;BME280;35738;49.890;5.930;2022-08-19T03:36:46;95594.91;;;15.34;86.27
49841;BME280;35738;49.890;5.930;2022-08-19T03:39:14;95596.31;;;15.24;85.83
49841;BME280;35738;49.890;5.930;2022-08-19T03:41:42;95595.28;;;15.13;85.63
49841;BME280;35738;49.890;5.930;2022-08-19T03:44:13;95587.66;;;15.07;86.00
49841;BME280;35738;49.890;5.930;2022-08-19T03:46:45;95585.53;;;15.00;86.88
49841;BME280;35738;49.890;5.930;2022-08-19T03:49:12;95586.94;;;14.90;86.78
49841;BME280;35738;49.890;5.930;2022-08-19T03:51:41;95597.81;;;14.83;86.65
49841;BME280;35738;49.890;5.930;2022-08-19T03:54:10;95603.34;;;14.83;87.43
49841;BME280;35738;49.890;5.930;2022-08-19T03:56:39;95600.88;;;14.78;87.86
49841;BME280;35738;49.890;5.930;2022-08-19T03:59:10;95603.66;;;14.78;87.19
49841;BME280;35738;49.890;5.930;2022-08-19T04:01:37;95603.22;;;14.76;87.72
49841;BME280;35738;49.890;5.930;2022-08-19T04:04:04;95617.19;;;14.83;87.72
49841;BME280;35738;49.890;5.930;2022-08-19T04:06:32;95611.41;;;14.88;87.77
49841;BME280;35738;49.890;5.930;2022-08-19T04:09:03;95608.19;;;14.86;87.21
49841;BME280;35738;49.890;5.930;2022-08-19T04:11:40;95619.28;;;14.86;88.28
49841;BME280;35738;49.890;5.930;2022-08-19T04:14:23;95620.88;;;14.87;88.48
49841;BME280;35738;49.890;5.930;2022-08-19T04:16:50;95620.59;;;14.92;87.35
49841;BME280;35738;49.890;5.930;2022-08-19T04:19:18;95618.63;;;14.93;86.92
49841;BME280;35738;49.890;5.930;2022-08-19T04:21:48;95622.47;;;14.88;87.29
49841;BME280;35738;49.890;5.930;2022-08-19T04:24:16;95621.56;;;14.84;88.13
49841;BME280;35738;49.890;5.930;2022-08-19T04:26:44;95614.00;;;14.81;88.17
49841;BME280;35738;49.890;5.930;2022-08-19T04:29:19;95614.94;;;14.70;88.77
49841;BME280;35738;49.890;5.930;2022-08-19T04:31:49;95624.31;;;14.65;88.37
49841;BME280;35738;49.890;5.930;2022-08-19T04:34:18;95619.06;;;14.60;88.50
49841;BME280;35738;49.890;5.930;2022-08-19T04:36:49;95624.88;;;14.55;88.81
49841;BME280;35738;49.890;5.930;2022-08-19T04:39:21;95635.78;;;14.48;88.54
49841;BME280;35738;49.890;5.930;2022-08-19T04:41:49;95633.38;;;14.46;89.09
49841;BME280;35738;49.890;5.930;2022-08-19T04:44:35;95633.31;;;14.43;89.13
49841;BME280;35738;49.890;5.930;2022-08-19T04:47:11;95631.78;;;14.45;88.96
49841;BME280;35738;49.890;5.930;2022-08-19T04:49:38;95636.41;;;14.41;89.63
49841;BME280;35738;49.890;5.930;2022-08-19T04:52:05;95627.28;;;14.41;89.31
49841;BME280;35738;49.890;5.930;2022-08-19T04:54:32;95622.94;;;14.40;89.27
49841;BME280;35738;49.890;5.930;2022-08-19T04:57:06;95637.03;;;14.50;89.62
49841;BME280;35738;49.890;5.930;2022-08-19T04:59:34;95639.53;;;14.55;90.30
49841;BME280;35738;49.890;5.930;2022-08-19T05:02:01;95636.91;;;14.62;89.33
49841;BME280;35738;49.890;5.930;2022-08-19T05:04:28;95638.50;;;14.63;89.04
49841;BME280;35738;49.890;5.930;2022-08-19T05:06:58;95642.09;;;14.64;89.49
49841;BME280;35738;49.890;5.930;2022-08-19T05:09:27;95656.81;;;14.68;89.36
49841;BME280;35738;49.890;5.930;2022-08-19T05:12:14;95654.47;;;14.70;89.25
49841;BME280;35738;49.890;5.930;2022-08-19T05:14:42;95653.47;;;14.78;89.83
49841;BME280;35738;49.890;5.930;2022-08-19T05:17:09;95659.44;;;14.80;89.62
49841;BME280;35738;49.890;5.930;2022-08-19T05:19:56;95665.00;;;14.80;89.75
49841;BME280;35738;49.890;5.930;2022-08-19T05:22:42;95673.75;;;14.82;88.51
49841;BME280;35738;49.890;5.930;2022-08-19T05:25:12;95667.75;;;14.80;88.57
49841;BME280;35738;49.890;5.930;2022-08-19T05:27:41;95670.97;;;14.82;89.21
49841;BME280;35738;49.890;5.930;2022-08-19T05:30:10;95672.84;;;14.78;88.30
49841;BME280;35738;49.890;5.930;2022-08-19T05:32:38;95664.91;;;14.77;88.61
49841;BME280;35738;49.890;5.930;2022-08-19T05:35:05;95674.09;;;14.81;88.97
49841;BME280;35738;49.890;5.930;2022-08-19T05:37:32;95667.66;;;14.92;89.60
49841;BME280;35738;49.890;5.930;2022-08-19T05:39:59;95679.78;;;15.04;89.08
49841;BME280;35738;49.890;5.930;2022-08-19T05:42:26;95676.44;;;15.14;89.22
49841;BME280;35738;49.890;5.930;2022-08-19T05:44:53;95681.09;;;15.29;88.34
49841;BME280;35738;49.890;5.930;2022-08-19T05:47:20;95666.06;;;15.49;87.75
49841;BME280;35738;49.890;5.930;2022-08-19T05:49:48;95666.84;;;15.66;86.13
49841;BME280;35738;49.890;5.930;2022-08-19T05:52:16;95665.28;;;15.68;86.21
49841;BME280;35738;49.890;5.930;2022-08-19T05:54:45;95666.50;;;15.90;85.31
49841;BME280;35738;49.890;5.930;2022-08-19T05:57:18;95670.75;;;16.07;84.16
49841;BME280;35738;49.890;5.930;2022-08-19T05:59:45;95666.25;;;16.21;83.83
49841;BME280;35738;49.890;5.930;2022-08-19T06:02:18;95674.06;;;16.16;84.00
49841;BME280;35738;49.890;5.930;2022-08-19T06:04:45;95674.84;;;15.71;86.96
49841;BME280;35738;49.890;5.930;2022-08-19T06:07:12;95666.66;;;15.39;88.48
49841;BME280;35738;49.890;5.930;2022-08-19T06:09:39;95671.16;;;15.47;88.49
49841;BME280;35738;49.890;5.930;2022-08-19T06:12:06;95664.47;;;15.29;90.07
49841;BME280;35738;49.890;5.930;2022-08-19T06:14:35;95666.06;;;15.30;90.71
49841;BME280;35738;49.890;5.930;2022-08-19T06:17:07;95674.09;;;15.16;90.83
49841;BME280;35738;49.890;5.930;2022-08-19T06:19:34;95674.53;;;15.18;91.14
49841;BME280;35738;49.890;5.930;2022-08-19T06:22:06;95676.44;;;15.14;91.06
49841;BME280;35738;49.890;5.930;2022-08-19T06:24:34;95679.84;;;15.07;92.56
49841;BME280;35738;49.890;5.930;2022-08-19T06:27:03;95675.53;;;15.10;92.67
49841;BME280;35738;49.890;5.930;2022-08-19T06:29:32;95677.50;;;15.09;92.41
49841;BME280;35738;49.890;5.930;2022-08-19T06:32:00;95675.91;;;15.08;92.73
49841;BME280;35738;49.890;5.930;2022-08-19T06:34:30;95679.56;;;15.12;92.31
49841;BME280;35738;49.890;5.930;2022-08-19T06:36:59;95683.13;;;15.13;93.16
49841;BME280;35738;49.890;5.930;2022-08-19T06:39:31;95677.31;;;15.18;93.32
49841;BME280;35738;49.890;5.930;2022-08-19T06:42:00;95677.44;;;15.06;95.08
49841;BME280;35738;49.890;5.930;2022-08-19T06:44:30;95685.09;;;15.12;94.54
49841;BME280;35738;49.890;5.930;2022-08-19T06:47:11;95683.28;;;15.20;94.47
49841;BME280;35738;49.890;5.930;2022-08-19T06:49:41;95687.38;;;15.26;95.29
49841;BME280;35738;49.890;5.930;2022-08-19T06:52:08;95686.19;;;15.27;94.78
49841;BME280;35738;49.890;5.930;2022-08-19T06:54:40;95688.59;;;15.48;94.30
49841;BME280;35738;49.890;5.930;2022-08-19T06:57:23;95677.88;;;15.46;94.48
49841;BME280;35738;49.890;5.930;2022-08-19T06:59:51;95689.88;;;15.70;93.87
49841;BME280;35738;49.890;5.930;2022-08-19T07:02:18;95689.72;;;15.82;93.14
49841;BME280;35738;49.890;5.930;2022-08-19T07:04:45;95688.06;;;16.00;92.33
49841;BME280;35738;49.890;5.930;2022-08-19T07:07:14;95693.56;;;16.19;90.67
49841;BME280;35738;49.890;5.930;2022-08-19T07:09:48;95695.72;;;16.30;89.71
49841;BME280;35738;49.890;5.930;2022-08-19T07:12:27;95705.63;;;16.08;89.73
49841;BME280;35738;49.890;5.930;2022-08-19T07:14:56;95703.91;;;16.23;88.53
49841;BME280;35738;49.890;5.930;2022-08-19T07:17:24;95716.22;;;16.44;88.55
49841;BME280;35738;49.890;5.930;2022-08-19T07:19:51;95718.88;;;16.37;87.67
49841;BME280;35738;49.890;5.930;2022-08-19T07:22:20;95720.25;;;16.28;87.40
49841;BME280;35738;49.890;5.930;2022-08-19T07:24:52;95722.72;;;16.33;88.06
49841;BME280;35738;49.890;5.930;2022-08-19T07:27:19;95718.41;;;16.58;86.68
49841;BME280;35738;49.890;5.930;2022-08-19T07:29:51;95709.75;;;16.37;86.54
49841;BME280;35738;49.890;5.930;2022-08-19T07:32:23;95719.59;;;16.57;86.31
49841;BME280;35738;49.890;5.930;2022-08-19T07:34:53;95725.41;;;16.48;85.84
49841;BME280;35738;49.890;5.930;2022-08-19T07:37:19;95734.03;;;16.43;86.74
49841;BME280;35738;49.890;5.930;2022-08-19T07:39:46;95728.78;;;16.84;85.22
49841;BME280;35738;49.890;5.930;2022-08-19T07:42:13;95725.41;;;16.98;84.08
49841;BME280;35738;49.890;5.930;2022-08-19T07:44:41;95723.25;;;17.10;82.84
49841;BME280;35738;49.890;5.930;2022-08-19T07:47:17;95724.72;;;17.04;82.79
49841;BME280;35738;49.890;5.930;2022-08-19T07:50:07;95731.00;;;16.75;83.73
49841;BME280;35738;49.890;5.930;2022-08-19T07:52:34;95728.72;;;16.80;84.39
49841;BME280;35738;49.890;5.930;2022-08-19T07:55:03;95732.66;;;16.79;83.87
49841;BME280;35738;49.890;5.930;2022-08-19T07:57:30;95734.38;;;16.88;83.97
49841;BME280;35738;49.890;5.930;2022-08-19T07:59:58;95738.88;;;16.96;83.78
49841;BME280;35738;49.890;5.930;2022-08-19T08:02:25;95734.50;;;16.95;83.60
49841;BME280;35738;49.890;5.930;2022-08-19T08:04:51;95741.69;;;16.99;83.58
49841;BME280;35738;49.890;5.930;2022-08-19T08:07:37;95748.75;;;16.93;83.32
49841;BME280;35738;49.890;5.930;2022-08-19T08:10:22;95742.94;;;17.02;82.92
49841;BME280;35738;49.890;5.930;2022-08-19T08:12:50;95748.50;;;17.02;82.54
49841;BME280;35738;49.890;5.930;2022-08-19T08:15:37;95747.94;;;16.93;82.71
49841;BME280;35738;49.890;5.930;2022-08-19T08:18:10;95747.69;;;17.01;82.36
49841;BME280;35738;49.890;5.930;2022-08-19T08:20:37;95745.28;;;17.00;82.65
49841;BME280;35738;49.890;5.930;2022-08-19T08:23:04;95742.94;;;17.28;82.11
49841;BME280;35738;49.890;5.930;2022-08-19T08:25:50;95753.06;;;17.43;80.86
49841;BME280;35738;49.890;5.930;2022-08-19T08:28:18;95750.16;;;17.63;79.90
49841;BME280;35738;49.890;5.930;2022-08-19T08:30:46;95748.50;;;17.58;79.43
49841;BME280;35738;49.890;5.930;2022-08-19T08:33:23;95757.56;;;17.82;79.61
49841;BME280;35738;49.890;5.930;2022-08-19T08:36:09;95749.41;;;17.66;78.44
49841;BME280;35738;49.890;5.930;2022-08-19T08:38:37;95760.03;;;17.87;78.72
49841;BME280;35738;49.890;5.930;2022-08-19T08:43:52;95755.59;;;18.16;76.03
49841;BME280;35738;49.890;5.930;2022-08-19T08:46:24;95757.41;;;18.38;76.11
49841;BME280;35738;49.890;5.930;2022-08-19T08:51:57;95762.72;;;18.50;73.80
49841;BME280;35738;49.890;5.930;2022-08-19T08:54:35;95758.63;;;18.40;74.12
49841;BME280;35738;49.890;5.930;2022-08-19T08:57:09;95761.53;;;18.51;74.05
49841;BME280;35738;49.890;5.930;2022-08-19T08:59:40;95763.91;;;18.53;74.19
49841;BME280;35738;49.890;5.930;2022-08-19T09:02:08;95755.91;;;18.48;73.96
49841;BME280;35738;49.890;5.930;2022-08-19T09:04:36;95761.31;;;18.30;74.88
49841;BME280;35738;49.890;5.930;2022-08-19T09:10:10;95761.69;;;18.62;72.34
49841;BME280;35738;49.890;5.930;2022-08-19T09:12:55;95758.97;;;18.69;73.12
49841;BME280;35738;49.890;5.930;2022-08-19T09:15:34;95766.63;;;18.83;72.77
49841;BME280;35738;49.890;5.930;2022-08-19T09:18:04;95764.22;;;18.81;72.17
49841;BME280;35738;49.890;5.930;2022-08-19T09:20:32;95769.75;;;18.74;71.62
49841;BME280;35738;49.890;5.930;2022-08-19T09:22:59;95759.50;;;18.85;71.70
49841;BME280;35738;49.890;5.930;2022-08-19T09:25:27;95753.66;;;19.04;70.32
49841;BME280;35738;49.890;5.930;2022-08-19T09:27:55;95755.03;;;19.32;69.51
49841;BME280;35738;49.890;5.930;2022-08-19T09:30:32;95753.94;;;19.40;69.71
49841;BME280;35738;49.890;5.930;2022-08-19T09:32:59;95755.28;;;19.64;69.77
49841;BME280;35738;49.890;5.930;2022-08-19T09:35:29;95753.81;;;19.91;69.44
49841;BME280;35738;49.890;5.930;2022-08-19T09:37:57;95750.72;;;20.18;67.97
49841;BME280;35738;49.890;5.930;2022-08-19T09:40:26;95752.16;;;19.76;69.00
49841;BME280;35738;49.890;5.930;2022-08-19T09:42:56;95752.66;;;20.03;68.58
49841;BME280;35738;49.890;5.930;2022-08-19T09:45:24;95751.50;;;20.08;67.83
49841;BME280;35738;49.890;5.930;2022-08-19T09:47:52;95753.09;;;20.09;67.69
49841;BME280;35738;49.890;5.930;2022-08-19T09:50:22;95746.66;;;20.01;67.09
49841;BME280;35738;49.890;5.930;2022-08-19T09:52:50;95750.31;;;20.12;67.94
49841;BME280;35738;49.890;5.930;2022-08-19T09:55:23;95763.50;;;20.19;67.47
49841;BME280;35738;49.890;5.930;2022-08-19T09:57:59;95763.13;;;20.31;66.73
49841;BME280;35738;49.890;5.930;2022-08-19T10:00:25;95757.94;;;20.29;67.57
49841;BME280;35738;49.890;5.930;2022-08-19T10:02:53;95760.28;;;20.13;68.11
49841;BME280;35738;49.890;5.930;2022-08-19T10:05:19;95768.25;;;20.11;66.46
49841;BME280;35738;49.890;5.930;2022-08-19T10:08:08;95761.13;;;20.28;65.68
49841;BME280;35738;49.890;5.930;2022-08-19T10:10:40;95752.72;;;20.17;65.21
49841;BME280;35738;49.890;5.930;2022-08-19T10:13:14;95755.91;;;20.16;65.53
49841;BME280;35738;49.890;5.930;2022-08-19T10:15:41;95754.75;;;20.27;64.59
49841;BME280;35738;49.890;5.930;2022-08-19T10:18:14;95747.56;;;20.34;63.57
49841;BME280;35738;49.890;5.930;2022-08-19T10:20:40;95749.13;;;20.20;64.28
49841;BME280;35738;49.890;5.930;2022-08-19T10:23:09;95738.88;;;20.63;62.47
49841;BME280;35738;49.890;5.930;2022-08-19T10:25:35;95748.81;;;20.50;63.47
49841;BME280;35738;49.890;5.930;2022-08-19T10:28:04;95757.22;;;20.50;63.88
49841;BME280;35738;49.890;5.930;2022-08-19T10:30:36;95755.63;;;20.49;63.11
49841;BME280;35738;49.890;5.930;2022-08-19T10:33:04;95751.16;;;20.34;61.35
49841;BME280;35738;49.890;5.930;2022-08-19T10:35:36;95749.94;;;20.21;59.76
49841;BME280;35738;49.890;5.930;2022-08-19T10:38:22;95739.56;;;20.14;58.41
49841;BME280;35738;49.890;5.930;2022-08-19T10:40:57;95738.44;;;20.47;59.75
49841;BME280;35738;49.890;5.930;2022-08-19T10:43:25;95738.88;;;20.71;59.58
49841;BME280;35738;49.890;5.930;2022-08-19T10:45:55;95736.50;;;20.94;58.32
49841;BME280;35738;49.890;5.930;2022-08-19T10:48:28;95731.72;;;20.98;58.39
49841;BME280;35738;49.890;5.930;2022-08-19T10:50:57;95730.09;;;21.18;58.50
49841;BME280;35738;49.890;5.930;2022-08-19T10:53:49;95731.28;;;21.21;56.12
49841;BME280;35738;49.890;5.930;2022-08-19T10:56:16;95730.88;;;21.44;54.79
49841;BME280;35738;49.890;5.930;2022-08-19T10:59:01;95732.06;;;21.43;54.72
49841;BME280;35738;49.890;5.930;2022-08-19T11:01:31;95716.50;;;21.20;52.38
49841;BME280;35738;49.890;5.930;2022-08-19T11:04:01;95723.31;;;21.16;52.67
49841;BME280;35738;49.890;5.930;2022-08-19T11:06:28;95726.47;;;21.43;53.59
49841;BME280;35738;49.890;5.930;2022-08-19T11:08:56;95717.28;;;21.46;53.44
49841;BME280;35738;49.890;5.930;2022-08-19T11:11:23;95724.84;;;21.67;53.03
49841;BME280;35738;49.890;5.930;2022-08-19T11:13:50;95719.09;;;21.99;53.13
49841;BME280;35738;49.890;5.930;2022-08-19T11:16:19;95723.56;;;21.85;53.93
49841;BME280;35738;49.890;5.930;2022-08-19T11:18:50;95729.94;;;21.86;53.88
49841;BME280;35738;49.890;5.930;2022-08-19T11:21:25;95724.31;;;21.93;53.49
49841;BME280;35738;49.890;5.930;2022-08-19T11:23:56;95726.78;;;21.80;53.78
49841;BME280;35738;49.890;5.930;2022-08-19T11:26:23;95725.25;;;21.54;55.65
49841;BME280;35738;49.890;5.930;2022-08-19T11:28:50;95724.63;;;22.20;53.94
49841;BME280;35738;49.890;5.930;2022-08-19T11:31:22;95729.00;;;22.21;54.26
49841;BME280;35738;49.890;5.930;2022-08-19T11:33:56;95729.06;;;22.14;55.36
49841;BME280;35738;49.890;5.930;2022-08-19T11:36:23;95731.94;;;21.89;56.00
49841;BME280;35738;49.890;5.930;2022-08-19T11:38:51;95729.94;;;21.93;55.58
49841;BME280;35738;49.890;5.930;2022-08-19T11:41:20;95724.94;;;22.36;54.72
49841;BME280;35738;49.890;5.930;2022-08-19T11:43:50;95716.34;;;22.65;53.37
49841;BME280;35738;49.890;5.930;2022-08-19T11:46:19;95713.59;;;22.58;53.68
49841;BME280;35738;49.890;5.930;2022-08-19T11:48:47;95712.06;;;22.49;54.10
49841;BME280;35738;49.890;5.930;2022-08-19T11:51:19;95723.03;;;22.85;53.08
49841;BME280;35738;49.890;5.930;2022-08-19T11:53:47;95714.00;;;22.56;53.02
49841;BME280;35738;49.890;5.930;2022-08-19T11:56:13;95701.63;;;22.50;53.77
49841;BME280;35738;49.890;5.930;2022-08-19T11:58:40;95711.91;;;22.71;52.36
49841;BME280;35738;49.890;5.930;2022-08-19T12:01:09;95725.00;;;22.22;53.82
49841;BME280;35738;49.890;5.930;2022-08-19T12:03:38;95720.41;;;22.57;53.09
49841;BME280;35738;49.890;5.930;2022-08-19T12:06:13;95719.09;;;22.72;52.69
49841;BME280;35738;49.890;5.930;2022-08-19T12:08:45;95722.09;;;22.43;53.74
49841;BME280;35738;49.890;5.930;2022-08-19T12:11:14;95721.38;;;22.91;53.14
49841;BME280;35738;49.890;5.930;2022-08-19T12:13:41;95724.72;;;23.65;50.73
49841;BME280;35738;49.890;5.930;2022-08-19T12:16:33;95722.16;;;23.77;49.93
49841;BME280;35738;49.890;5.930;2022-08-19T12:19:06;95725.28;;;23.04;51.46
49841;BME280;35738;49.890;5.930;2022-08-19T12:21:35;95735.09;;;22.75;52.48
49841;BME280;35738;49.890;5.930;2022-08-19T12:24:04;95732.16;;;22.37;53.70
49841;BME280;35738;49.890;5.930;2022-08-19T12:26:32;95732.19;;;22.30;54.26
49841;BME280;35738;49.890;5.930;2022-08-19T12:29:01;95733.00;;;22.31;54.23
49841;BME280;35738;49.890;5.930;2022-08-19T12:31:28;95726.63;;;22.16;54.72
49841;BME280;35738;49.890;5.930;2022-08-19T12:33:55;95719.09;;;22.06;55.14
49841;BME280;35738;49.890;5.930;2022-08-19T12:36:22;95732.16;;;22.37;54.38
49841;BME280;35738;49.890;5.930;2022-08-19T12:38:49;95720.41;;;22.57;54.45
49841;BME280;35738;49.890;5.930;2022-08-19T12:41:17;95716.97;;;22.31;54.75
49841;BME280;35738;49.890;5.930;2022-08-19T12:43:44;95716.88;;;22.45;54.14
49841;BME280;35738;49.890;5.930;2022-08-19T12:46:12;95716.25;;;22.79;53.76
49841;BME280;35738;49.890;5.930;2022-08-19T12:48:38;95716.06;;;22.48;54.07
49841;BME280;35738;49.890;5.930;2022-08-19T12:51:10;95715.38;;;22.27;54.95
49841;BME280;35738;49.890;5.930;2022-08-19T12:53:39;95706.53;;;22.35;53.91
49841;BME280;35738;49.890;5.930;2022-08-19T12:56:07;95725.78;;;22.33;54.21
49841;BME280;35738;49.890;5.930;2022-08-19T12:58:38;95725.91;;;22.71;53.93
49841;BME280;35738;49.890;5.930;2022-08-19T13:01:10;95716.66;;;22.81;52.93
49841;BME280;35738;49.890;5.930;2022-08-19T13:03:38;95734.06;;;23.10;52.77
49841;BME280;35738;49.890;5.930;2022-08-19T13:06:06;95720.84;;;23.10;52.09
49841;BME280;35738;49.890;5.930;2022-08-19T13:08:33;95713.66;;;23.02;52.49
49841;BME280;35738;49.890;5.930;2022-08-19T13:11:26;95717.22;;;23.10;52.55
49841;BME280;35738;49.890;5.930;2022-08-19T13:13:59;95710.19;;;22.88;53.26
49841;BME280;35738;49.890;5.930;2022-08-19T13:16:25;95715.66;;;23.05;53.17
49841;BME280;35738;49.890;5.930;2022-08-19T13:18:55;95706.97;;;22.89;52.54
49841;BME280;35738;49.890;5.930;2022-08-19T13:21:25;95714.84;;;23.08;52.85
49841;BME280;35738;49.890;5.930;2022-08-19T13:23:53;95709.66;;;23.07;52.29
49841;BME280;35738;49.890;5.930;2022-08-19T13:26:20;95718.19;;;22.89;52.48
49841;BME280;35738;49.890;5.930;2022-08-19T13:28:47;95723.06;;;22.81;52.91
49841;BME280;35738;49.890;5.930;2022-08-19T13:31:35;95712.28;;;22.73;53.46